San Diego, California
Current Conditions -  °F | °C
As of 1:51 AM on Tuesday 21 Oct 2014 (Local Time) from KSAN Reporting Station
Overcast Overcast  
Wind Chill: 69°   Ceiling: 1600
Heat Index: 69°   Visibility: 10mi
Dew Point: 61°   Wind: 3mph
Humidity: 75%   Direction: 300°WNW
Pressure: 29.91"   Gusts: NA
Location:  32.72°N, 117.16°W
Report Text: KSAN 210851Z 30003KT 10SM OVC016 21/16 A2991 RMK AO2 SLP129 T02060161 58005
Loading
Personal Weather Stations






























Interactive Weather Map New forecast layout! Learn more

10-Day Weather Forecast

Advertisements
Track Severe Weather on mobile